Terminal Aerodrome Forecast
Issued by NWS

Home | Current Version | Previous Version | Graphics & Text | Print | Product List | Glossary On
Versions: 1 2 3 4 5 6 7 8 9 10 11 12 13 14 15 16 17 18 19 20
000
FTUS43 KLSX 311119 AAB
TAFSUS
TAF AMD
KSUS 311119Z 3111/0106 00000KT 5SM BR BKN080
     FM311300 17004KT P6SM BKN080
     FM311700 18008KT P6SM SCT040
     FM010200 VRB03KT P6SM SCT250=

USA.gov is the U.S. government's official web portal to all federal, state and local government web resources and services.